Time;durP1;ratioP1;P1;durP2;ratioP2;P2;SDS_P1;SDS_P2;PMS_P1;PMS_P2;Temp;Humidity;BMP_temperature;BMP_pressure;BME280_temperature;BME280_humidity;BME280_pressure;Samples;Min_cycle;Max_cycle;Signal;HPM_P1;HPM_P2
2023/07/25 00:04:36;;;;;;;2.08;1.02;;;;;;;20.81;82.70;100253.81;20268723;29;20450;-74
2023/07/25 00:14:39;;;;;;;1.23;0.93;;;;;;;20.79;81.35;100250.44;20268349;29;20060;-74
2023/07/25 00:24:40;;;;;;;2.05;1.00;;;;;;;20.77;81.56;100241.59;20267255;29;20060;-74
2023/07/25 00:34:42;;;;;;;1.42;0.88;;;;;;;20.74;80.44;100237.38;20265719;29;20056;-74
2023/07/25 00:44:44;;;;;;;1.38;0.75;;;;;;;20.68;77.59;100233.50;20264939;29;20409;-74
2023/07/25 00:54:49;;;;;;;1.55;0.80;;;;;;;20.71;76.50;100249.38;20263045;29;20048;-74
2023/07/25 01:04:51;;;;;;;1.63;0.90;;;;;;;20.69;75.95;100251.41;20263658;29;20060;-74
2023/07/25 01:14:53;;;;;;;1.60;1.00;;;;;;;20.69;75.66;100245.16;20264364;29;20564;-74
2023/07/25 01:24:55;;;;;;;1.00;0.80;;;;;;;20.60;75.34;100230.81;20263283;29;20140;-74
2023/07/25 01:34:56;;;;;;;1.10;0.90;;;;;;;20.65;75.08;100254.63;20260452;29;20059;-74
2023/07/25 01:44:58;;;;;;;1.80;0.85;;;;;;;20.62;74.62;100236.88;20266358;29;20041;-74
2023/07/25 01:55:00;;;;;;;3.08;1.00;;;;;;;20.61;74.57;100243.31;20234370;29;20060;-74
2023/07/25 02:05:02;;;;;;;2.40;0.95;;;;;;;20.58;74.42;100249.91;20181610;29;20048;-74
2023/07/25 02:15:04;;;;;;;2.28;0.88;;;;;;;20.58;74.07;100244.50;20222049;29;20529;-74
2023/07/25 02:25:06;;;;;;;3.55;1.10;;;;;;;20.56;73.69;100251.94;20197171;29;20077;-74
2023/07/25 02:35:07;;;;;;;1.48;1.00;;;;;;;20.55;73.58;100263.78;20204627;29;20435;-74
2023/07/25 02:45:09;;;;;;;1.63;0.88;;;;;;;20.55;74.56;100252.09;20218393;29;20053;-74
2023/07/25 02:55:11;;;;;;;1.00;0.80;;;;;;;20.53;74.75;100240.63;20230994;29;20065;-74
2023/07/25 03:05:15;;;;;;;1.10;0.82;;;;;;;20.44;75.05;100231.66;20267369;29;20084;-74
2023/07/25 03:15:16;;;;;;;1.77;0.90;;;;;;;20.50;75.34;100233.66;20195061;29;20052;-74
2023/07/25 03:25:18;;;;;;;1.42;0.90;;;;;;;20.48;74.47;100243.81;20194017;29;20514;-74
2023/07/25 03:35:20;;;;;;;1.10;0.75;;;;;;;20.47;74.45;100238.59;20261513;29;20100;-74
2023/07/25 03:45:21;;;;;;;0.80;0.68;;;;;;;20.44;74.47;100245.16;20249094;29;20060;-74
2023/07/25 03:55:23;;;;;;;1.33;0.77;;;;;;;20.42;74.30;100256.16;20252469;29;20144;-74
2023/07/25 04:05:25;;;;;;;0.70;0.70;;;;;;;20.42;74.26;100252.59;20191714;29;20100;-74
2023/07/25 04:15:26;;;;;;;1.13;0.68;;;;;;;20.40;73.87;100260.91;20191317;29;20063;-74
2023/07/25 04:25:28;;;;;;;0.75;0.60;;;;;;;20.38;74.21;100265.63;20220379;29;20041;-74
2023/07/25 04:35:31;;;;;;;1.52;0.82;;;;;;;20.37;74.50;100261.25;20225925;29;20044;-76
2023/07/25 04:45:33;;;;;;;1.77;0.90;;;;;;;20.37;75.76;100274.75;20228883;29;20568;-77
2023/07/25 04:55:34;;;;;;;0.77;0.70;;;;;;;20.39;76.49;100272.72;20254112;29;20566;-75
2023/07/25 05:05:36;;;;;;;1.45;0.90;;;;;;;20.45;76.30;100287.41;20235122;29;20068;-78
2023/07/25 05:15:38;;;;;;;1.45;0.85;;;;;;;20.49;76.70;100277.13;20251998;29;20053;-75
2023/07/25 05:25:40;;;;;;;0.93;0.75;;;;;;;20.54;76.66;100272.03;20229183;29;20124;-81
2023/07/25 05:35:41;;;;;;;1.20;0.90;;;;;;;20.58;76.75;100276.09;20231530;29;20080;-82
2023/07/25 05:45:43;;;;;;;0.85;0.60;;;;;;;20.61;78.93;100293.84;20221539;29;20140;-79
2023/07/25 05:55:48;;;;;;;1.15;0.60;;;;;;;20.64;78.66;100291.66;20268370;29;20057;-83
2023/07/25 06:05:49;;;;;;;3.15;0.77;;;;;;;20.66;78.55;100288.78;20232172;29;20068;-81
2023/07/25 06:24:59;;;;;;;4.00;0.90;;;;;;;20.74;78.98;100286.06;21115853;27;20355;-79
2023/07/25 06:35:01;;;;;;;2.63;0.80;;;;;;;20.77;78.11;100279.47;21102315;28;20052;-81
2023/07/25 06:45:03;;;;;;;2.88;0.80;;;;;;;20.80;78.45;100279.19;21117426;28;20132;-79
2023/07/25 06:55:06;;;;;;;4.05;1.05;;;;;;;20.88;78.92;100286.41;21103649;28;20044;-70
2023/07/25 07:05:07;;;;;;;2.67;0.90;;;;;;;20.99;79.49;100288.75;21124674;28;20607;-78
2023/07/25 07:20:59;;;;;;;8.18;1.23;;;;;;;21.00;80.64;100285.91;21040108;27;20352;-62
2023/07/25 07:31:01;;;;;;;7.30;1.77;;;;;;;21.01;81.71;100281.34;21049484;28;20049;-61
2023/07/25 07:41:03;;;;;;;5.38;1.33;;;;;;;21.05;81.77;100293.50;21053736;28;20518;-63
2023/07/25 07:51:05;;;;;;;7.55;1.00;;;;;;;21.08;81.08;100298.56;21043613;28;20160;-63
2023/07/25 08:01:18;;;;;;;6.38;1.38;;;;;;;21.14;82.13;100310.56;21044268;28;20094;-63
2023/07/25 08:11:19;;;;;;;2.80;1.10;;;;;;;21.20;79.92;100301.75;21053074;28;20101;-62
2023/07/25 08:21:21;;;;;;;2.55;0.90;;;;;;;21.30;79.10;100329.47;21051582;28;20097;-61
2023/07/25 08:31:23;;;;;;;3.00;0.90;;;;;;;21.39;77.20;100338.41;21008344;28;20059;-64
2023/07/25 08:41:26;;;;;;;1.80;0.80;;;;;;;21.38;77.46;100346.72;20971538;28;20421;-64
2023/07/25 08:51:28;;;;;;;1.50;0.70;;;;;;;21.39;76.88;100348.41;20986328;28;20048;-64
2023/07/25 09:01:30;;;;;;;2.35;1.20;;;;;;;21.46;77.63;100349.41;20977942;28;20449;-64
2023/07/25 09:11:33;;;;;;;1.73;0.80;;;;;;;21.47;77.41;100367.34;20988170;28;20045;-64
2023/07/25 09:21:49;;;;;;;2.20;0.70;;;;;;;21.50;78.81;100361.56;20979786;28;20045;-64
2023/07/25 09:31:51;;;;;;;2.53;0.70;;;;;;;21.52;78.16;100364.13;20980671;28;20048;-64
2023/07/25 09:41:53;;;;;;;2.13;1.08;;;;;;;21.53;77.40;100369.34;20989171;28;20044;-64
2023/07/25 09:51:59;;;;;;;1.67;0.55;;;;;;;21.56;77.18;100373.59;20987152;28;21315;-64
2023/07/25 10:02:01;;;;;;;1.05;0.43;;;;;;;21.59;77.31;100371.38;20988375;28;20091;-64
2023/07/25 10:12:03;;;;;;;0.93;0.40;;;;;;;21.61;75.62;100370.34;20995825;28;20397;-64
2023/07/25 10:22:05;;;;;;;0.77;0.40;;;;;;;21.65;75.55;100369.00;20968512;28;20126;-64
2023/07/25 10:32:17;;;;;;;0.90;0.50;;;;;;;21.67;75.93;100367.00;20977562;28;20044;-64
2023/07/25 10:42:34;;;;;;;1.98;0.40;;;;;;;21.65;71.83;100379.84;20979832;28;20051;-64
2023/07/25 10:52:43;;;;;;;1.45;0.77;;;;;;;21.62;72.20;100380.16;20980492;28;20052;-64
2023/07/25 11:02:45;;;;;;;0.57;0.40;;;;;;;21.64;72.05;100380.84;20981270;28;20778;-64
2023/07/25 11:12:52;;;;;;;1.95;0.52;;;;;;;21.62;69.60;100383.72;20960788;28;20056;-64
2023/07/25 11:22:54;;;;;;;2.38;1.13;;;;;;;21.67;71.37;100377.84;20947763;28;20599;-63
2023/07/25 11:32:55;;;;;;;1.42;0.60;;;;;;;21.68;69.36;100363.25;20959922;28;20044;-64
2023/07/25 11:42:57;;;;;;;4.03;0.95;;;;;;;21.64;67.76;100368.19;20957560;28;20044;-64
2023/07/25 11:52:59;;;;;;;2.78;0.73;;;;;;;21.73;68.67;100360.88;20952429;28;20099;-64
2023/07/25 12:03:01;;;;;;;2.85;0.80;;;;;;;21.72;68.92;100364.59;20952706;28;20063;-63
2023/07/25 12:13:03;;;;;;;1.33;0.60;;;;;;;21.70;68.19;100370.19;20972606;28;20044;-64
2023/07/25 12:23:06;;;;;;;1.15;0.70;;;;;;;21.69;67.27;100401.00;20967837;28;20431;-63
2023/07/25 12:33:07;;;;;;;2.30;0.73;;;;;;;21.69;67.35;100400.19;20976427;28;20044;-61
2023/07/25 12:43:09;;;;;;;1.67;0.77;;;;;;;21.71;67.76;100403.56;20959786;28;20146;-61
2023/07/25 12:53:11;;;;;;;0.70;0.60;;;;;;;21.72;66.82;100403.34;20966087;28;20059;-63
2023/07/25 13:03:13;;;;;;;2.67;0.50;;;;;;;21.76;66.91;100403.88;20967742;28;20087;-62
2023/07/25 13:13:15;;;;;;;2.28;0.50;;;;;;;21.75;66.25;100421.16;20997508;28;20581;-61
2023/07/25 13:23:17;;;;;;;3.78;0.95;;;;;;;21.73;66.67;100426.72;20985053;28;20475;-62
2023/07/25 13:33:19;;;;;;;4.65;0.70;;;;;;;21.71;66.72;100445.03;20989753;28;20496;-62
2023/07/25 13:43:21;;;;;;;2.28;0.70;;;;;;;21.68;67.00;100458.09;20995018;28;20420;-62
2023/07/25 13:53:23;;;;;;;2.97;0.50;;;;;;;21.66;66.98;100474.50;20997614;28;20049;-63
2023/07/25 14:03:27;;;;;;;1.80;0.52;;;;;;;21.66;67.71;100473.66;20957437;28;20049;-62
2023/07/25 14:13:32;;;;;;;0.70;0.40;;;;;;;21.53;67.18;100447.91;20967266;28;20056;-62
2023/07/25 14:23:34;;;;;;;2.30;0.50;;;;;;;21.68;67.27;100477.88;20972441;28;20048;-63
2023/07/25 14:33:38;;;;;;;1.58;0.55;;;;;;;21.73;68.78;100480.06;20957692;28;20036;-63
2023/07/25 14:43:39;;;;;;;2.17;0.60;;;;;;;21.72;68.91;100476.50;20969249;28;20075;-64
2023/07/25 14:53:41;;;;;;;1.50;0.60;;;;;;;21.68;69.04;100499.53;21017873;28;20051;-62
2023/07/25 15:03:43;;;;;;;1.40;0.52;;;;;;;21.63;68.63;100501.03;20967437;28;20067;-77
2023/07/25 15:13:45;;;;;;;5.82;1.27;;;;;;;21.62;71.43;100508.31;20970764;28;20044;-66
2023/07/25 15:23:47;;;;;;;4.78;0.73;;;;;;;21.63;72.42;100506.44;20971275;28;20052;-66
2023/07/25 15:33:49;;;;;;;3.97;0.90;;;;;;;21.64;73.27;100500.91;20958608;28;20514;-65
2023/07/25 15:43:52;;;;;;;4.10;1.50;;;;;;;21.66;73.50;100501.59;20962282;28;20051;-64
2023/07/25 15:53:53;;;;;;;13.85;5.80;;;;;;;21.70;74.07;100502.09;20974240;28;20045;-62
2023/07/25 16:03:55;;;;;;;17.70;8.48;;;;;;;21.74;77.59;100508.88;20990322;28;20179;-64
2023/07/25 16:13:57;;;;;;;19.67;8.20;;;;;;;21.77;77.67;100513.94;20964804;28;20597;-64
2023/07/25 16:23:59;;;;;;;23.05;7.85;;;;;;;21.81;76.24;100511.72;20980864;28;20089;-64
2023/07/25 16:34:00;;;;;;;13.40;4.22;;;;;;;21.87;79.75;100520.00;20964690;28;20052;-63
2023/07/25 16:44:03;;;;;;;10.52;3.55;;;;;;;21.90;81.27;100523.38;20966455;28;20053;-64
2023/07/25 16:54:05;;;;;;;11.18;3.80;;;;;;;21.90;81.10;100535.09;20969906;28;20044;-65
2023/07/25 17:04:07;;;;;;;9.13;3.13;;;;;;;21.87;80.36;100547.09;20961189;28;20455;-64
2023/07/25 17:14:08;;;;;;;8.85;3.20;;;;;;;21.85;79.55;100551.84;20965328;28;20044;-66
2023/07/25 17:24:10;;;;;;;9.73;3.22;;;;;;;21.83;79.31;100553.03;20960405;28;20151;-63
2023/07/25 17:34:12;;;;;;;9.30;2.05;;;;;;;21.80;79.11;100556.94;20966548;28;20055;-64
2023/07/25 17:44:13;;;;;;;5.18;2.03;;;;;;;21.78;78.51;100555.41;20964565;28;20059;-65
2023/07/25 17:54:15;;;;;;;4.63;2.03;;;;;;;21.75;77.81;100559.31;20964184;28;20052;-65
2023/07/25 18:04:17;;;;;;;7.47;2.25;;;;;;;21.73;77.46;100569.50;20963418;28;20084;-65
2023/07/25 18:14:18;;;;;;;4.32;1.70;;;;;;;21.71;77.41;100563.38;20968404;28;20054;-66
2023/07/25 18:24:20;;;;;;;3.90;1.60;;;;;;;21.70;77.35;100573.38;20964593;28;20051;-67
2023/07/25 18:34:23;;;;;;;5.15;1.60;;;;;;;21.68;77.00;100569.16;20955731;28;20127;-64
2023/07/25 18:44:25;;;;;;;5.13;1.25;;;;;;;21.67;77.57;100583.72;20965709;28;20592;-68
2023/07/25 18:54:26;;;;;;;3.40;1.20;;;;;;;21.67;78.07;100591.84;20971410;28;20048;-65
2023/07/25 19:04:28;;;;;;;3.22;1.23;;;;;;;21.67;77.66;100600.81;20971494;28;20051;-66
2023/07/25 19:14:30;;;;;;;2.00;1.20;;;;;;;21.64;76.93;100597.56;20965782;28;20037;-64
2023/07/25 19:24:31;;;;;;;2.53;1.25;;;;;;;21.63;77.05;100612.97;20970565;28;20056;-64
2023/07/25 19:34:36;;;;;;;3.10;1.13;;;;;;;21.61;77.03;100600.59;20962854;28;20500;-64
2023/07/25 19:44:38;;;;;;;4.95;1.10;;;;;;;21.50;77.29;100599.06;20953945;28;20059;-62
2023/07/25 19:54:40;;;;;;;2.83;1.20;;;;;;;21.58;75.56;100632.41;20983681;28;20068;-64
2023/07/25 20:04:41;;;;;;;3.40;1.10;;;;;;;21.52;74.44;100648.50;20969047;28;20053;-64
2023/07/25 20:14:43;;;;;;;2.50;0.93;;;;;;;21.48;73.95;100666.94;20995253;28;20135;-64
2023/07/25 20:24:45;;;;;;;3.55;1.13;;;;;;;21.45;73.20;100667.28;21037142;28;20139;-64
2023/07/25 20:34:46;;;;;;;2.42;1.25;;;;;;;21.41;72.55;100666.75;21077387;28;20051;-64
2023/07/25 20:44:48;;;;;;;2.22;1.02;;;;;;;21.38;72.19;100677.06;21077298;28;20048;-64
2023/07/25 20:54:50;;;;;;;2.35;1.40;;;;;;;21.35;71.68;100672.00;21076925;28;20079;-64
2023/07/25 21:04:52;;;;;;;2.38;1.13;;;;;;;21.33;71.69;100679.44;21077247;28;20101;-64
2023/07/25 21:14:54;;;;;;;2.00;1.13;;;;;;;21.30;71.42;100683.31;21072856;28;20097;-64
2023/07/25 21:24:55;;;;;;;2.67;1.50;;;;;;;21.29;74.21;100684.31;21062697;28;20075;-64
2023/07/25 21:34:57;;;;;;;3.40;1.30;;;;;;;21.27;74.76;100689.03;21072426;28;20101;-64
2023/07/25 21:44:59;;;;;;;1.90;1.20;;;;;;;21.25;74.53;100693.78;21073068;28;20123;-64
2023/07/25 21:55:00;;;;;;;2.97;1.27;;;;;;;21.23;74.00;100695.81;21070327;28;20434;-64
2023/07/25 22:05:03;;;;;;;3.13;1.30;;;;;;;21.23;73.68;100703.91;21071243;28;20048;-64
2023/07/25 22:15:06;;;;;;;3.60;1.60;;;;;;;21.22;73.73;100700.38;21047250;28;20422;-64
2023/07/25 22:25:08;;;;;;;2.35;1.30;;;;;;;21.23;73.90;100699.38;21059780;28;20568;-64
2023/07/25 22:35:10;;;;;;;2.22;1.20;;;;;;;21.21;74.21;100695.13;21051019;28;20446;-67
2023/07/25 22:56:21;;;;;;;2.47;1.10;;;;;;;21.16;73.89;100692.88;21066495;28;20055;-67
2023/07/25 23:06:22;;;;;;;1.55;1.00;;;;;;;21.13;73.69;100685.09;21066645;28;20044;-67
2023/07/25 23:16:24;;;;;;;2.63;1.40;;;;;;;21.11;73.10;100687.13;21049842;28;20048;-67
2023/07/25 23:26:26;;;;;;;1.52;0.93;;;;;;;21.06;70.49;100681.34;21064729;28;20105;-67
2023/07/25 23:36:28;;;;;;;1.55;1.00;;;;;;;21.01;70.22;100677.28;21065002;28;20056;-67
2023/07/25 23:46:29;;;;;;;1.80;1.20;;;;;;;21.00;70.16;100682.88;21066044;28;20119;-67
2023/07/25 23:56:32;;;;;;;1.30;0.80;;;;;;;20.98;69.82;100691.13;21068576;28;20058;-66
